sensor_id;sensor_type;location;lat;lon;timestamp;P1;P2;P0
56495;PMS5003;42804;55.762;38.084;2023-05-16T00:00:09;26.00;24.80;18.00
56495;PMS5003;42804;55.762;38.084;2023-05-16T00:02:38;30.60;24.60;18.20
56495;PMS5003;42804;55.762;38.084;2023-05-16T00:05:06;32.60;29.00;21.00
56495;PMS5003;42804;55.762;38.084;2023-05-16T00:07:37;37.60;32.00;22.40
56495;PMS5003;42804;55.762;38.084;2023-05-16T00:10:06;36.40;29.60;20.40
56495;PMS5003;42804;55.762;38.084;2023-05-16T00:12:34;29.40;26.60;15.00
56495;PMS5003;42804;55.762;38.084;2023-05-16T00:15:03;37.60;31.40;21.00
56495;PMS5003;42804;55.762;38.084;2023-05-16T00:17:32;27.40;23.00;18.60
56495;PMS5003;42804;55.762;38.084;2023-05-16T00:20:01;30.00;26.80;19.00
56495;PMS5003;42804;55.762;38.084;2023-05-16T00:22:38;25.80;24.20;17.20
56495;PMS5003;42804;55.762;38.084;2023-05-16T00:25:06;31.40;29.20;18.40
56495;PMS5003;42804;55.762;38.084;2023-05-16T00:27:35;27.40;24.20;19.00
56495;PMS5003;42804;55.762;38.084;2023-05-16T00:30:03;24.60;21.40;13.20
56495;PMS5003;42804;55.762;38.084;2023-05-16T00:32:33;32.20;22.40;12.60
56495;PMS5003;42804;55.762;38.084;2023-05-16T00:35:02;19.60;17.80;12.20
56495;PMS5003;42804;55.762;38.084;2023-05-16T00:37:31;28.20;23.80;16.40
56495;PMS5003;42804;55.762;38.084;2023-05-16T00:40:01;19.25;17.25;9.75
56495;PMS5003;42804;55.762;38.084;2023-05-16T00:42:30;27.50;22.75;17.00
56495;PMS5003;42804;55.762;38.084;2023-05-16T00:44:58;24.25;22.25;15.00
56495;PMS5003;42804;55.762;38.084;2023-05-16T00:47:30;22.00;18.50;12.50
56495;PMS5003;42804;55.762;38.084;2023-05-16T00:49:58;26.25;25.25;16.25
56495;PMS5003;42804;55.762;38.084;2023-05-16T00:52:30;22.75;22.50;15.75
56495;PMS5003;42804;55.762;38.084;2023-05-16T00:55:03;26.75;23.75;14.50
56495;PMS5003;42804;55.762;38.084;2023-05-16T00:57:33;24.75;23.00;15.00
56495;PMS5003;42804;55.762;38.084;2023-05-16T01:00:02;27.75;23.25;14.50
56495;PMS5003;42804;55.762;38.084;2023-05-16T01:02:35;22.50;18.25;12.00
56495;PMS5003;42804;55.762;38.084;2023-05-16T01:05:04;19.25;18.75;13.50
56495;PMS5003;42804;55.762;38.084;2023-05-16T01:07:33;18.75;18.00;9.50
56495;PMS5003;42804;55.762;38.084;2023-05-16T01:10:04;23.00;20.00;13.00
56495;PMS5003;42804;55.762;38.084;2023-05-16T01:12:36;14.50;13.00;10.00
56495;PMS5003;42804;55.762;38.084;2023-05-16T01:15:08;24.50;22.00;14.00
56495;PMS5003;42804;55.762;38.084;2023-05-16T01:17:44;21.75;17.75;12.00
56495;PMS5003;42804;55.762;38.084;2023-05-16T01:20:21;20.50;17.00;10.50
56495;PMS5003;42804;55.762;38.084;2023-05-16T01:22:58;22.25;17.50;13.50
56495;PMS5003;42804;55.762;38.084;2023-05-16T01:25:38;19.25;18.25;13.50
56495;PMS5003;42804;55.762;38.084;2023-05-16T01:28:14;18.50;16.75;11.00
56495;PMS5003;42804;55.762;38.084;2023-05-16T01:30:43;18.00;17.00;10.50
56495;PMS5003;42804;55.762;38.084;2023-05-16T01:33:11;20.00;18.00;12.25
56495;PMS5003;42804;55.762;38.084;2023-05-16T01:35:42;18.50;18.25;13.00
56495;PMS5003;42804;55.762;38.084;2023-05-16T01:38:17;18.50;16.50;11.75
56495;PMS5003;42804;55.762;38.084;2023-05-16T01:40:50;19.25;18.25;11.25
56495;PMS5003;42804;55.762;38.084;2023-05-16T01:43:24;17.00;16.25;11.00
56495;PMS5003;42804;55.762;38.084;2023-05-16T01:45:58;16.00;13.50;11.50
56495;PMS5003;42804;55.762;38.084;2023-05-16T01:48:29;15.50;15.00;11.00
56495;PMS5003;42804;55.762;38.084;2023-05-16T01:50:59;18.75;18.00;12.75
56495;PMS5003;42804;55.762;38.084;2023-05-16T01:53:31;13.25;12.00;7.75
56495;PMS5003;42804;55.762;38.084;2023-05-16T01:56:00;17.25;16.75;12.50
56495;PMS5003;42804;55.762;38.084;2023-05-16T01:58:31;20.00;18.75;13.00
56495;PMS5003;42804;55.762;38.084;2023-05-16T02:01:00;19.00;17.75;12.75
56495;PMS5003;42804;55.762;38.084;2023-05-16T02:03:30;17.25;15.50;10.25
56495;PMS5003;42804;55.762;38.084;2023-05-16T02:05:58;18.50;17.75;14.00
56495;PMS5003;42804;55.762;38.084;2023-05-16T02:08:27;17.50;17.00;13.75
56495;PMS5003;42804;55.762;38.084;2023-05-16T02:10:55;15.00;15.00;9.00
56495;PMS5003;42804;55.762;38.084;2023-05-16T02:13:24;19.00;16.00;11.75
56495;PMS5003;42804;55.762;38.084;2023-05-16T02:15:54;16.25;15.50;11.25
56495;PMS5003;42804;55.762;38.084;2023-05-16T02:18:23;2.75;1.50;0.00
56495;PMS5003;42804;55.762;38.084;2023-05-16T02:20:51;16.50;15.75;11.00
56495;PMS5003;42804;55.762;38.084;2023-05-16T02:23:20;19.00;17.25;11.25
56495;PMS5003;42804;55.762;38.084;2023-05-16T02:25:48;15.25;14.00;10.75
56495;PMS5003;42804;55.762;38.084;2023-05-16T02:28:16;27.00;23.25;16.00
56495;PMS5003;42804;55.762;38.084;2023-05-16T02:30:44;21.00;19.50;14.00
56495;PMS5003;42804;55.762;38.084;2023-05-16T02:33:14;21.75;20.75;16.75
56495;PMS5003;42804;55.762;38.084;2023-05-16T02:35:44;20.00;20.00;14.00
56495;PMS5003;42804;55.762;38.084;2023-05-16T02:38:13;22.50;19.50;15.50
56495;PMS5003;42804;55.762;38.084;2023-05-16T02:40:43;21.00;19.75;14.75
56495;PMS5003;42804;55.762;38.084;2023-05-16T02:43:11;24.75;23.75;18.00
56495;PMS5003;42804;55.762;38.084;2023-05-16T02:45:41;21.75;19.75;15.50
56495;PMS5003;42804;55.762;38.084;2023-05-16T02:48:09;19.25;18.50;12.25
56495;PMS5003;42804;55.762;38.084;2023-05-16T02:50:41;25.25;24.00;18.75
56495;PMS5003;42804;55.762;38.084;2023-05-16T02:53:09;21.00;21.00;16.00
56495;PMS5003;42804;55.762;38.084;2023-05-16T02:55:38;25.00;24.00;17.50
56495;PMS5003;42804;55.762;38.084;2023-05-16T02:58:06;22.00;20.50;15.75
56495;PMS5003;42804;55.762;38.084;2023-05-16T03:00:34;21.75;20.75;15.00
56495;PMS5003;42804;55.762;38.084;2023-05-16T03:03:03;21.50;19.00;14.75
56495;PMS5003;42804;55.762;38.084;2023-05-16T03:05:31;22.00;20.50;16.50
56495;PMS5003;42804;55.762;38.084;2023-05-16T03:08:01;17.00;16.25;11.00
56495;PMS5003;42804;55.762;38.084;2023-05-16T03:10:29;20.25;18.75;14.25
56495;PMS5003;42804;55.762;38.084;2023-05-16T03:12:57;19.00;17.75;13.00
56495;PMS5003;42804;55.762;38.084;2023-05-16T03:15:26;18.50;16.00;11.00
56495;PMS5003;42804;55.762;38.084;2023-05-16T03:17:55;16.50;15.25;11.75
56495;PMS5003;42804;55.762;38.084;2023-05-16T03:20:23;18.50;14.50;9.00
56495;PMS5003;42804;55.762;38.084;2023-05-16T03:22:51;22.50;22.00;15.00
56495;PMS5003;42804;55.762;38.084;2023-05-16T03:25:21;19.25;18.75;12.75
56495;PMS5003;42804;55.762;38.084;2023-05-16T03:27:49;24.00;22.00;17.00
56495;PMS5003;42804;55.762;38.084;2023-05-16T03:30:18;21.75;20.00;16.25
56495;PMS5003;42804;55.762;38.084;2023-05-16T03:32:46;20.00;17.75;13.00
56495;PMS5003;42804;55.762;38.084;2023-05-16T03:35:14;22.25;21.50;15.50
56495;PMS5003;42804;55.762;38.084;2023-05-16T03:37:42;18.00;17.50;11.75
56495;PMS5003;42804;55.762;38.084;2023-05-16T03:40:11;22.50;21.50;14.50
56495;PMS5003;42804;55.762;38.084;2023-05-16T03:42:41;18.25;18.25;15.00
56495;PMS5003;42804;55.762;38.084;2023-05-16T03:45:09;17.50;17.00;12.00
56495;PMS5003;42804;55.762;38.084;2023-05-16T03:47:37;18.25;16.50;12.25
56495;PMS5003;42804;55.762;38.084;2023-05-16T03:50:06;17.25;15.50;12.00
56495;PMS5003;42804;55.762;38.084;2023-05-16T03:52:35;17.75;16.00;10.00
56495;PMS5003;42804;55.762;38.084;2023-05-16T03:57:52;16.75;15.75;10.75
56495;PMS5003;42804;55.762;38.084;2023-05-16T04:00:20;10.50;9.00;5.00
56495;PMS5003;42804;55.762;38.084;2023-05-16T04:02:49;15.50;14.50;9.75
56495;PMS5003;42804;55.762;38.084;2023-05-16T04:05:17;14.00;13.25;8.00
56495;PMS5003;42804;55.762;38.084;2023-05-16T04:07:46;12.00;12.00;8.25
56495;PMS5003;42804;55.762;38.084;2023-05-16T04:10:15;13.25;13.25;9.00
56495;PMS5003;42804;55.762;38.084;2023-05-16T04:15:52;10.75;10.00;6.00
56495;PMS5003;42804;55.762;38.084;2023-05-16T04:18:20;10.75;9.75;6.50
56495;PMS5003;42804;55.762;38.084;2023-05-16T04:20:48;11.25;11.00;6.75
56495;PMS5003;42804;55.762;38.084;2023-05-16T04:23:17;8.75;8.50;6.00
56495;PMS5003;42804;55.762;38.084;2023-05-16T04:25:45;10.00;9.75;6.00
56495;PMS5003;42804;55.762;38.084;2023-05-16T04:28:13;9.25;7.50;5.75
56495;PMS5003;42804;55.762;38.084;2023-05-16T04:30:42;9.00;8.75;7.00
56495;PMS5003;42804;55.762;38.084;2023-05-16T04:33:11;9.00;8.00;6.00
56495;PMS5003;42804;55.762;38.084;2023-05-16T04:35:57;6.75;6.75;5.00
56495;PMS5003;42804;55.762;38.084;2023-05-16T04:38:25;8.50;7.00;5.75
56495;PMS5003;42804;55.762;38.084;2023-05-16T04:40:54;5.75;5.75;4.25
56495;PMS5003;42804;55.762;38.084;2023-05-16T04:43:22;3.25;3.00;2.00
56495;PMS5003;42804;55.762;38.084;2023-05-16T04:45:50;6.75;6.75;4.25
56495;PMS5003;42804;55.762;38.084;2023-05-16T04:48:21;8.00;6.25;5.00
56495;PMS5003;42804;55.762;38.084;2023-05-16T04:50:49;8.25;6.25;4.00
56495;PMS5003;42804;55.762;38.084;2023-05-16T04:53:18;10.50;9.50;6.50
56495;PMS5003;42804;55.762;38.084;2023-05-16T04:55:46;4.75;4.75;4.00
56495;PMS5003;42804;55.762;38.084;2023-05-16T04:58:14;7.75;6.00;4.00
56495;PMS5003;42804;55.762;38.084;2023-05-16T05:00:43;6.00;6.00;4.00
56495;PMS5003;42804;55.762;38.084;2023-05-16T05:03:11;8.33;8.33;6.00
56495;PMS5003;42804;55.762;38.084;2023-05-16T05:05:41;6.50;6.25;4.50
56495;PMS5003;42804;55.762;38.084;2023-05-16T05:08:09;4.75;4.25;3.00
56495;PMS5003;42804;55.762;38.084;2023-05-16T05:10:37;5.75;5.50;4.00
56495;PMS5003;42804;55.762;38.084;2023-05-16T05:13:05;5.50;5.00;4.50
56495;PMS5003;42804;55.762;38.084;2023-05-16T05:15:34;5.75;5.75;4.25
56495;PMS5003;42804;55.762;38.084;2023-05-16T05:18:02;4.50;3.75;3.00
56495;PMS5003;42804;55.762;38.084;2023-05-16T05:20:30;6.00;5.00;4.00
56495;PMS5003;42804;55.762;38.084;2023-05-16T05:23:00;3.50;3.00;2.00
56495;PMS5003;42804;55.762;38.084;2023-05-16T05:25:28;2.50;2.00;2.00
56495;PMS5003;42804;55.762;38.084;2023-05-16T05:27:56;2.75;2.75;2.00
56495;PMS5003;42804;55.762;38.084;2023-05-16T05:30:25;1.00;1.00;1.00
56495;PMS5003;42804;55.762;38.084;2023-05-16T05:32:53;5.00;4.00;2.00
56495;PMS5003;42804;55.762;38.084;2023-05-16T05:35:22;4.25;4.00;2.75
56495;PMS5003;42804;55.762;38.084;2023-05-16T05:37:51;5.00;4.00;3.00
56495;PMS5003;42804;55.762;38.084;2023-05-16T05:40:20;4.25;4.00;3.50
56495;PMS5003;42804;55.762;38.084;2023-05-16T05:42:48;3.00;2.25;2.00
56495;PMS5003;42804;55.762;38.084;2023-05-16T05:45:17;3.00;3.00;2.75
56495;PMS5003;42804;55.762;38.084;2023-05-16T05:47:45;4.00;4.00;2.00
56495;PMS5003;42804;55.762;38.084;2023-05-16T05:50:13;5.00;4.50;3.00
56495;PMS5003;42804;55.762;38.084;2023-05-16T05:52:41;3.25;3.00;2.25
56495;PMS5003;42804;55.762;38.084;2023-05-16T05:55:10;3.00;3.00;2.25
56495;PMS5003;42804;55.762;38.084;2023-05-16T05:57:39;3.00;3.00;2.00
56495;PMS5003;42804;55.762;38.084;2023-05-16T06:00:08;1.00;1.00;1.00
56495;PMS5003;42804;55.762;38.084;2023-05-16T06:02:37;3.25;3.25;2.75
56495;PMS5003;42804;55.762;38.084;2023-05-16T06:05:06;3.75;3.75;3.00
56495;PMS5003;42804;55.762;38.084;2023-05-16T06:07:35;4.00;3.00;2.00
56495;PMS5003;42804;55.762;38.084;2023-05-16T06:10:04;3.25;2.75;2.00
56495;PMS5003;42804;55.762;38.084;2023-05-16T06:12:34;6.00;6.00;5.00
56495;PMS5003;42804;55.762;38.084;2023-05-16T06:15:05;3.00;3.00;2.00
56495;PMS5003;42804;55.762;38.084;2023-05-16T06:17:33;3.00;3.00;2.25
56495;PMS5003;42804;55.762;38.084;2023-05-16T06:20:02;3.00;3.00;2.25
56495;PMS5003;42804;55.762;38.084;2023-05-16T06:22:32;3.25;3.25;2.50
56495;PMS5003;42804;55.762;38.084;2023-05-16T06:25:00;4.00;4.00;3.00
56495;PMS5003;42804;55.762;38.084;2023-05-16T06:27:32;3.75;3.75;3.00
56495;PMS5003;42804;55.762;38.084;2023-05-16T06:30:00;3.25;2.50;2.00
56495;PMS5003;42804;55.762;38.084;2023-05-16T06:32:33;4.50;3.50;2.00
56495;PMS5003;42804;55.762;38.084;2023-05-16T06:35:01;2.25;2.25;2.00
56495;PMS5003;42804;55.762;38.084;2023-05-16T06:37:31;2.50;2.50;1.50
56495;PMS5003;42804;55.762;38.084;2023-05-16T06:39:59;3.25;3.00;2.75
56495;PMS5003;42804;55.762;38.084;2023-05-16T06:42:30;2.40;2.20;2.00
56495;PMS5003;42804;55.762;38.084;2023-05-16T06:44:59;3.75;2.25;1.50
56495;PMS5003;42804;55.762;38.084;2023-05-16T06:47:33;2.40;2.00;1.20
56495;PMS5003;42804;55.762;38.084;2023-05-16T06:50:02;2.25;2.25;2.00
56495;PMS5003;42804;55.762;38.084;2023-05-16T06:52:30;2.00;1.00;0.75
56495;PMS5003;42804;55.762;38.084;2023-05-16T06:54:59;2.00;2.00;1.75
56495;PMS5003;42804;55.762;38.084;2023-05-16T06:57:30;3.00;3.00;2.00
56495;PMS5003;42804;55.762;38.084;2023-05-16T06:59:59;2.00;2.00;2.00
56495;PMS5003;42804;55.762;38.084;2023-05-16T07:02:35;2.50;2.50;1.50
56495;PMS5003;42804;55.762;38.084;2023-05-16T07:05:03;1.50;1.50;0.50
56495;PMS5003;42804;55.762;38.084;2023-05-16T07:07:32;2.00;2.00;0.75
56495;PMS5003;42804;55.762;38.084;2023-05-16T07:10:01;3.00;2.00;0.75
56495;PMS5003;42804;55.762;38.084;2023-05-16T07:12:31;3.75;3.50;1.00
56495;PMS5003;42804;55.762;38.084;2023-05-16T07:14:59;2.25;2.00;1.00
56495;PMS5003;42804;55.762;38.084;2023-05-16T07:17:32;3.50;3.50;2.00
56495;PMS5003;42804;55.762;38.084;2023-05-16T07:20:02;4.00;4.00;3.00
56495;PMS5003;42804;55.762;38.084;2023-05-16T07:22:32;3.75;3.25;1.75
56495;PMS5003;42804;55.762;38.084;2023-05-16T07:25:00;4.50;4.50;2.00
56495;PMS5003;42804;55.762;38.084;2023-05-16T07:27:29;4.75;4.00;2.25
56495;PMS5003;42804;55.762;38.084;2023-05-16T07:29:58;3.00;3.00;2.00
56495;PMS5003;42804;55.762;38.084;2023-05-16T07:32:26;4.00;4.00;2.50
56495;PMS5003;42804;55.762;38.084;2023-05-16T07:34:54;3.00;2.50;1.00
56495;PMS5003;42804;55.762;38.084;2023-05-16T07:37:24;5.00;4.25;3.00
56495;PMS5003;42804;55.762;38.084;2023-05-16T07:39:52;3.50;3.50;2.00
56495;PMS5003;42804;55.762;38.084;2023-05-16T07:42:20;4.00;3.50;2.00
56495;PMS5003;42804;55.762;38.084;2023-05-16T07:44:48;2.00;2.00;1.25
56495;PMS5003;42804;55.762;38.084;2023-05-16T07:47:17;6.00;5.50;3.00
56495;PMS5003;42804;55.762;38.084;2023-05-16T07:49:45;4.00;4.00;2.00
56495;PMS5003;42804;55.762;38.084;2023-05-16T07:52:13;3.25;3.25;2.00
56495;PMS5003;42804;55.762;38.084;2023-05-16T07:54:44;2.00;2.00;1.50
56495;PMS5003;42804;55.762;38.084;2023-05-16T07:57:12;2.00;2.00;1.00
56495;PMS5003;42804;55.762;38.084;2023-05-16T07:59:40;3.00;2.25;1.50
56495;PMS5003;42804;55.762;38.084;2023-05-16T08:02:09;2.00;2.00;2.00
56495;PMS5003;42804;55.762;38.084;2023-05-16T08:04:37;3.25;3.00;2.00
56495;PMS5003;42804;55.762;38.084;2023-05-16T08:07:06;0.00;0.00;0.00
56495;PMS5003;42804;55.762;38.084;2023-05-16T08:09:35;3.00;3.00;1.60
56495;PMS5003;42804;55.762;38.084;2023-05-16T08:12:04;3.00;3.00;1.00
56495;PMS5003;42804;55.762;38.084;2023-05-16T08:14:33;3.80;3.80;2.00
56495;PMS5003;42804;55.762;38.084;2023-05-16T08:17:03;3.00;3.00;1.00
56495;PMS5003;42804;55.762;38.084;2023-05-16T08:19:31;4.75;4.50;3.00
56495;PMS5003;42804;55.762;38.084;2023-05-16T08:22:00;2.75;2.75;1.00
56495;PMS5003;42804;55.762;38.084;2023-05-16T08:24:28;3.00;3.00;1.00
56495;PMS5003;42804;55.762;38.084;2023-05-16T08:26:56;3.00;2.75;1.50
56495;PMS5003;42804;55.762;38.084;2023-05-16T08:29:26;2.25;2.25;1.00
56495;PMS5003;42804;55.762;38.084;2023-05-16T08:31:55;1.00;1.00;1.00
56495;PMS5003;42804;55.762;38.084;2023-05-16T08:34:23;2.00;2.00;1.20
56495;PMS5003;42804;55.762;38.084;2023-05-16T08:36:51;2.00;2.00;1.75
56495;PMS5003;42804;55.762;38.084;2023-05-16T08:39:20;2.00;2.00;1.00
56495;PMS5003;42804;55.762;38.084;2023-05-16T08:41:48;2.00;2.00;1.00
56495;PMS5003;42804;55.762;38.084;2023-05-16T08:44:17;0.00;0.00;0.00
56495;PMS5003;42804;55.762;38.084;2023-05-16T08:46:49;2.25;2.00;1.00
56495;PMS5003;42804;55.762;38.084;2023-05-16T08:49:19;3.50;2.25;1.50
56495;PMS5003;42804;55.762;38.084;2023-05-16T08:51:48;2.50;2.00;1.00
56495;PMS5003;42804;55.762;38.084;2023-05-16T08:54:18;2.00;2.00;1.75
56495;PMS5003;42804;55.762;38.084;2023-05-16T08:56:47;0.00;0.00;0.00
56495;PMS5003;42804;55.762;38.084;2023-05-16T08:59:17;0.75;0.50;0.00
56495;PMS5003;42804;55.762;38.084;2023-05-16T09:01:46;1.00;1.00;0.00
56495;PMS5003;42804;55.762;38.084;2023-05-16T09:04:16;2.75;2.00;1.25
56495;PMS5003;42804;55.762;38.084;2023-05-16T09:06:44;2.50;2.00;1.00
56495;PMS5003;42804;55.762;38.084;2023-05-16T09:09:12;0.50;0.50;0.00
56495;PMS5003;42804;55.762;38.084;2023-05-16T09:11:41;2.00;1.50;0.75
56495;PMS5003;42804;55.762;38.084;2023-05-16T09:14:09;1.25;1.25;1.00
56495;PMS5003;42804;55.762;38.084;2023-05-16T09:16:37;1.00;1.00;1.00
56495;PMS5003;42804;55.762;38.084;2023-05-16T09:19:06;1.00;1.00;0.00
56495;PMS5003;42804;55.762;38.084;2023-05-16T09:21:35;0.00;0.00;0.00
56495;PMS5003;42804;55.762;38.084;2023-05-16T09:24:04;1.80;1.00;0.00
56495;PMS5003;42804;55.762;38.084;2023-05-16T09:26:33;1.50;1.50;1.00
56495;PMS5003;42804;55.762;38.084;2023-05-16T09:29:02;1.00;1.00;0.20
56495;PMS5003;42804;55.762;38.084;2023-05-16T09:31:36;2.00;1.00;1.00
56495;PMS5003;42804;55.762;38.084;2023-05-16T09:34:06;2.00;2.00;1.00
56495;PMS5003;42804;55.762;38.084;2023-05-16T09:36:55;2.00;1.75;1.00
56495;PMS5003;42804;55.762;38.084;2023-05-16T09:39:23;1.00;1.00;1.00
56495;PMS5003;42804;55.762;38.084;2023-05-16T09:41:54;1.00;1.00;0.00
56495;PMS5003;42804;55.762;38.084;2023-05-16T09:44:22;2.00;2.00;1.00
56495;PMS5003;42804;55.762;38.084;2023-05-16T09:46:52;2.00;1.50;0.50
56495;PMS5003;42804;55.762;38.084;2023-05-16T09:49:21;1.20;1.20;0.40
56495;PMS5003;42804;55.762;38.084;2023-05-16T09:51:50;1.75;1.50;1.00
56495;PMS5003;42804;55.762;38.084;2023-05-16T09:54:39;2.00;1.00;0.75
56495;PMS5003;42804;55.762;38.084;2023-05-16T09:57:07;2.00;1.50;1.00
56495;PMS5003;42804;55.762;38.084;2023-05-16T10:02:23;2.50;2.25;1.00
56495;PMS5003;42804;55.762;38.084;2023-05-16T10:04:52;1.50;1.50;0.50
56495;PMS5003;42804;55.762;38.084;2023-05-16T10:07:20;2.00;2.00;1.00
56495;PMS5003;42804;55.762;38.084;2023-05-16T10:09:50;2.00;2.00;1.20
56495;PMS5003;42804;55.762;38.084;2023-05-16T10:12:55;1.50;1.00;0.25
56495;PMS5003;42804;55.762;38.084;2023-05-16T10:15:43;0.00;0.00;0.00
56495;PMS5003;42804;55.762;38.084;2023-05-16T10:18:30;1.00;1.00;1.00
56495;PMS5003;42804;55.762;38.084;2023-05-16T10:21:00;2.00;2.00;1.00
56495;PMS5003;42804;55.762;38.084;2023-05-16T10:23:29;1.00;1.00;0.00
56495;PMS5003;42804;55.762;38.084;2023-05-16T10:25:59;1.00;1.00;0.75
56495;PMS5003;42804;55.762;38.084;2023-05-16T10:28:29;2.00;2.00;1.00
56495;PMS5003;42804;55.762;38.084;2023-05-16T10:30:58;2.75;1.75;1.00
56495;PMS5003;42804;55.762;38.084;2023-05-16T10:33:27;1.80;1.80;1.00
56495;PMS5003;42804;55.762;38.084;2023-05-16T10:35:56;1.00;1.00;0.25
56495;PMS5003;42804;55.762;38.084;2023-05-16T10:38:26;3.25;3.00;1.25
56495;PMS5003;42804;55.762;38.084;2023-05-16T10:40:55;1.75;1.00;1.00
56495;PMS5003;42804;55.762;38.084;2023-05-16T10:43:26;2.00;2.00;1.00
56495;PMS5003;42804;55.762;38.084;2023-05-16T10:45:56;1.00;1.00;0.25
56495;PMS5003;42804;55.762;38.084;2023-05-16T10:48:29;1.75;1.75;1.00
56495;PMS5003;42804;55.762;38.084;2023-05-16T10:50:59;0.75;0.75;0.00
56495;PMS5003;42804;55.762;38.084;2023-05-16T10:53:29;1.00;1.00;0.00
56495;PMS5003;42804;55.762;38.084;2023-05-16T10:56:07;2.50;2.25;1.50
56495;PMS5003;42804;55.762;38.084;2023-05-16T10:58:44;2.00;1.00;1.00
56495;PMS5003;42804;55.762;38.084;2023-05-16T11:01:14;2.00;1.00;1.00
56495;PMS5003;42804;55.762;38.084;2023-05-16T11:03:59;1.00;1.00;0.00
56495;PMS5003;42804;55.762;38.084;2023-05-16T11:06:28;1.00;1.00;1.00
56495;PMS5003;42804;55.762;38.084;2023-05-16T11:09:05;4.40;3.00;1.00
56495;PMS5003;42804;55.762;38.084;2023-05-16T11:11:58;2.00;1.00;1.00
56495;PMS5003;42804;55.762;38.084;2023-05-16T11:14:35;2.00;2.00;1.00
56495;PMS5003;42804;55.762;38.084;2023-05-16T11:17:08;1.00;1.00;0.00
56495;PMS5003;42804;55.762;38.084;2023-05-16T11:19:42;1.00;1.00;0.00
56495;PMS5003;42804;55.762;38.084;2023-05-16T11:22:11;2.50;1.75;1.00
56495;PMS5003;42804;55.762;38.084;2023-05-16T11:24:49;1.00;1.00;0.00
56495;PMS5003;42804;55.762;38.084;2023-05-16T11:27:19;1.00;1.00;0.50
56495;PMS5003;42804;55.762;38.084;2023-05-16T11:29:50;2.25;2.25;1.00
56495;PMS5003;42804;55.762;38.084;2023-05-16T11:32:37;2.00;2.00;1.00
56495;PMS5003;42804;55.762;38.084;2023-05-16T11:35:07;1.75;1.75;1.00
56495;PMS5003;42804;55.762;38.084;2023-05-16T11:37:39;1.75;1.75;1.00
56495;PMS5003;42804;55.762;38.084;2023-05-16T11:40:08;1.00;1.00;1.00
56495;PMS5003;42804;55.762;38.084;2023-05-16T11:42:38;1.25;1.25;1.00
56495;PMS5003;42804;55.762;38.084;2023-05-16T11:45:09;1.00;1.00;1.00
56495;PMS5003;42804;55.762;38.084;2023-05-16T11:47:38;2.00;2.00;1.00
56495;PMS5003;42804;55.762;38.084;2023-05-16T11:50:09;0.00;0.00;0.00
56495;PMS5003;42804;55.762;38.084;2023-05-16T11:52:38;2.00;0.25;0.00
56495;PMS5003;42804;55.762;38.084;2023-05-16T11:55:14;1.00;1.00;0.50
56495;PMS5003;42804;55.762;38.084;2023-05-16T11:57:58;2.50;2.50;1.00
56495;PMS5003;42804;55.762;38.084;2023-05-16T12:00:28;1.00;1.00;0.00
56495;PMS5003;42804;55.762;38.084;2023-05-16T12:02:59;1.75;1.75;1.00
56495;PMS5003;42804;55.762;38.084;2023-05-16T12:05:30;1.75;1.75;1.50
56495;PMS5003;42804;55.762;38.084;2023-05-16T12:08:00;3.25;3.25;2.75
56495;PMS5003;42804;55.762;38.084;2023-05-16T12:10:31;3.75;3.25;2.00
56495;PMS5003;42804;55.762;38.084;2023-05-16T12:13:01;4.75;4.75;2.50
56495;PMS5003;42804;55.762;38.084;2023-05-16T12:15:48;4.00;3.25;3.00
56495;PMS5003;42804;55.762;38.084;2023-05-16T12:18:18;2.75;2.75;2.00
56495;PMS5003;42804;55.762;38.084;2023-05-16T12:20:48;1.00;1.00;1.00
56495;PMS5003;42804;55.762;38.084;2023-05-16T12:23:33;3.00;2.75;2.00
56495;PMS5003;42804;55.762;38.084;2023-05-16T12:26:02;3.00;3.00;1.75
56495;PMS5003;42804;55.762;38.084;2023-05-16T12:28:32;2.75;2.00;1.75
56495;PMS5003;42804;55.762;38.084;2023-05-16T12:31:03;3.00;3.00;2.00
56495;PMS5003;42804;55.762;38.084;2023-05-16T12:33:56;3.40;3.00;1.00
56495;PMS5003;42804;55.762;38.084;2023-05-16T12:36:25;2.00;2.00;1.40
56495;PMS5003;42804;55.762;38.084;2023-05-16T12:38:53;3.25;3.25;2.00
56495;PMS5003;42804;55.762;38.084;2023-05-16T12:41:21;3.75;3.75;2.50
56495;PMS5003;42804;55.762;38.084;2023-05-16T12:43:49;4.00;4.00;2.00
56495;PMS5003;42804;55.762;38.084;2023-05-16T12:46:19;2.25;2.25;2.00
56495;PMS5003;42804;55.762;38.084;2023-05-16T12:48:48;3.50;3.00;2.50
56495;PMS5003;42804;55.762;38.084;2023-05-16T12:51:17;4.00;3.00;2.00
56495;PMS5003;42804;55.762;38.084;2023-05-16T12:53:46;2.80;2.80;2.00
56495;PMS5003;42804;55.762;38.084;2023-05-16T12:56:38;2.60;2.00;1.60
56495;PMS5003;42804;55.762;38.084;2023-05-16T12:59:07;2.25;2.25;1.75
56495;PMS5003;42804;55.762;38.084;2023-05-16T13:01:37;2.00;2.00;1.00
56495;PMS5003;42804;55.762;38.084;2023-05-16T13:04:06;5.00;4.00;3.00
56495;PMS5003;42804;55.762;38.084;2023-05-16T13:06:35;2.00;2.00;1.00
56495;PMS5003;42804;55.762;38.084;2023-05-16T13:09:23;1.60;1.60;1.00
56495;PMS5003;42804;55.762;38.084;2023-05-16T13:11:58;2.25;2.25;2.00
56495;PMS5003;42804;55.762;38.084;2023-05-16T13:14:26;2.00;2.00;1.00
56495;PMS5003;42804;55.762;38.084;2023-05-16T13:16:58;2.50;2.50;1.00
56495;PMS5003;42804;55.762;38.084;2023-05-16T13:19:26;2.25;2.00;1.00
56495;PMS5003;42804;55.762;38.084;2023-05-16T13:21:58;2.25;1.50;1.00
56495;PMS5003;42804;55.762;38.084;2023-05-16T13:24:26;2.00;2.00;1.00
56495;PMS5003;42804;55.762;38.084;2023-05-16T13:26:54;4.00;3.50;2.50
56495;PMS5003;42804;55.762;38.084;2023-05-16T13:29:23;2.25;1.75;1.50
56495;PMS5003;42804;55.762;38.084;2023-05-16T13:31:52;3.00;3.00;2.00
56495;PMS5003;42804;55.762;38.084;2023-05-16T13:34:22;2.00;2.00;1.00
56495;PMS5003;42804;55.762;38.084;2023-05-16T13:36:51;4.00;3.00;2.00
56495;PMS5003;42804;55.762;38.084;2023-05-16T13:39:21;2.25;2.25;2.00
56495;PMS5003;42804;55.762;38.084;2023-05-16T13:41:49;2.40;2.40;1.00
56495;PMS5003;42804;55.762;38.084;2023-05-16T13:44:18;3.80;3.80;2.00
56495;PMS5003;42804;55.762;38.084;2023-05-16T13:46:48;2.25;2.25;2.00
56495;PMS5003;42804;55.762;38.084;2023-05-16T13:49:17;2.25;2.25;1.75
56495;PMS5003;42804;55.762;38.084;2023-05-16T13:51:46;2.75;2.75;1.75
56495;PMS5003;42804;55.762;38.084;2023-05-16T13:54:15;3.50;2.00;1.00
56495;PMS5003;42804;55.762;38.084;2023-05-16T13:56:44;4.00;4.00;2.20
56495;PMS5003;42804;55.762;38.084;2023-05-16T13:59:13;4.00;4.00;3.00
56495;PMS5003;42804;55.762;38.084;2023-05-16T14:01:58;5.00;4.00;3.00
56495;PMS5003;42804;55.762;38.084;2023-05-16T14:04:27;5.00;4.75;3.00
56495;PMS5003;42804;55.762;38.084;2023-05-16T14:06:56;4.25;4.25;2.50
56495;PMS5003;42804;55.762;38.084;2023-05-16T14:09:25;3.60;3.40;3.00
56495;PMS5003;42804;55.762;38.084;2023-05-16T14:11:53;3.60;3.60;2.60
56495;PMS5003;42804;55.762;38.084;2023-05-16T14:14:21;3.00;3.00;2.00
56495;PMS5003;42804;55.762;38.084;2023-05-16T14:16:51;6.00;4.00;3.00
56495;PMS5003;42804;55.762;38.084;2023-05-16T14:19:19;2.75;2.75;2.25
56495;PMS5003;42804;55.762;38.084;2023-05-16T14:21:48;3.00;3.00;1.75
56495;PMS5003;42804;55.762;38.084;2023-05-16T14:24:18;2.25;2.00;1.00